DLH6RL EGSS-EDDM
Flight info
| Callsign | DLH6RL |
|---|---|
| Flight time | 1h 10m |
| Altitude | 37000 |
| Route | NUGBO M183 SILVA Q41 COWLY UL612 VEULE DCT TEPRI UN491 POGZI DCT GELTA DCT LUVAL DCT BEGAR DCT TRA DCT NUNRI T103 BETOS BETOS1B |
| Aircraft | A320/M-SDE3FGHIRWY/LB1 |
Departure
| Time | 2026-05-05 13:11 |
|---|---|
| Airport | London Stansted Airport (EGSS) |
Arrival
| Time | 2026-05-05 14:21 |
|---|---|
| Airport | Munich Airport (EDDM) |
| Time | Latitude | Longitude | Altitude | Speed | Heading |
|---|---|---|---|---|---|
| 2026-05-05 12:11 | 51.88946 | 0.25221 | 358 ft | 0 kts | 43° |
| 2026-05-05 12:53 | 51.88944 | 0.25218 | 354 ft | 3 kts | 43° |
| 2026-05-05 12:53 | 51.88927 | 0.25191 | 349 ft | 2 kts | 43° |
| 2026-05-05 12:54 | 51.88886 | 0.25167 | 356 ft | 4 kts | 321° |
| 2026-05-05 12:54 | 51.88869 | 0.25195 | 359 ft | 3 kts | 313° |
| 2026-05-05 12:54 | 51.88867 | 0.25199 | 359 ft | 0 kts | 313° |
| 2026-05-05 12:58 | 51.88875 | 0.25185 | 357 ft | 3 kts | 313° |
| 2026-05-05 12:58 | 51.88893 | 0.25153 | 352 ft | 5 kts | 313° |
| 2026-05-05 12:58 | 51.88921 | 0.25105 | 352 ft | 7 kts | 313° |
| 2026-05-05 12:59 | 51.88958 | 0.25037 | 354 ft | 9 kts | 304° |
| 2026-05-05 12:59 | 51.88980 | 0.24932 | 352 ft | 11 kts | 290° |
| 2026-05-05 12:59 | 51.89032 | 0.24833 | 355 ft | 12 kts | 329° |
| 2026-05-05 13:00 | 51.89176 | 0.24979 | 359 ft | 15 kts | 43° |
| 2026-05-05 13:00 | 51.89241 | 0.25115 | 354 ft | 16 kts | 57° |
| 2026-05-05 13:01 | 51.89380 | 0.25215 | 355 ft | 0 kts | 315° |
| 2026-05-05 13:03 | 51.89378 | 0.25219 | 356 ft | 2 kts | 315° |
| 2026-05-05 13:04 | 51.89362 | 0.25244 | 352 ft | 5 kts | 316° |
| 2026-05-05 13:04 | 51.89339 | 0.25294 | 356 ft | 5 kts | 226° |
| 2026-05-05 13:04 | 51.89327 | 0.25278 | 350 ft | 6 kts | 220° |
| 2026-05-05 13:04 | 51.89276 | 0.25202 | 353 ft | 13 kts | 230° |
| 2026-05-05 13:05 | 51.89267 | 0.25180 | 355 ft | 1 kts | 236° |
| 2026-05-05 13:05 | 51.89251 | 0.25141 | 357 ft | 10 kts | 237° |
| 2026-05-05 13:05 | 51.89197 | 0.25016 | 352 ft | 15 kts | 229° |
| 2026-05-05 13:05 | 51.89119 | 0.24895 | 354 ft | 16 kts | 223° |
| 2026-05-05 13:06 | 51.89030 | 0.24763 | 353 ft | 18 kts | 222° |
| 2026-05-05 13:06 | 51.88933 | 0.24619 | 357 ft | 20 kts | 222° |
| 2026-05-05 13:06 | 51.88832 | 0.24457 | 355 ft | 21 kts | 227° |
| 2026-05-05 13:06 | 51.88718 | 0.24294 | 354 ft | 22 kts | 222° |
| 2026-05-05 13:07 | 51.88600 | 0.24116 | 353 ft | 24 kts | 223° |
| 2026-05-05 13:07 | 51.88475 | 0.23928 | 352 ft | 25 kts | 223° |
| 2026-05-05 13:07 | 51.88344 | 0.23728 | 354 ft | 26 kts | 222° |
| 2026-05-05 13:07 | 51.88207 | 0.23525 | 353 ft | 28 kts | 223° |
| 2026-05-05 13:08 | 51.88063 | 0.23311 | 351 ft | 29 kts | 223° |
| 2026-05-05 13:08 | 51.87914 | 0.23087 | 353 ft | 30 kts | 223° |
| 2026-05-05 13:08 | 51.87761 | 0.22855 | 357 ft | 31 kts | 222° |
| 2026-05-05 13:08 | 51.87600 | 0.22619 | 353 ft | 32 kts | 223° |
| 2026-05-05 13:09 | 51.87523 | 0.22434 | 343 ft | 15 kts | 287° |
| 2026-05-05 13:09 | 51.87564 | 0.22348 | 336 ft | 0 kts | 315° |
| 2026-05-05 13:09 | 51.87564 | 0.22347 | 336 ft | 0 kts | 315° |
| 2026-05-05 13:09 | 51.87583 | 0.22316 | 336 ft | 7 kts | 315° |
| 2026-05-05 13:10 | 51.87638 | 0.22265 | 334 ft | 10 kts | 345° |
| 2026-05-05 13:10 | 51.87714 | 0.22301 | 334 ft | 20 kts | 38° |
| 2026-05-05 13:10 | 51.88021 | 0.22757 | 339 ft | 100 kts | 43° |
| 2026-05-05 13:10 | 51.88702 | 0.23766 | 375 ft | 159 kts | 43° |
| 2026-05-05 13:11 | 51.89513 | 0.25022 | 1101 ft | 161 kts | 43° |
| 2026-05-05 13:11 | 51.90328 | 0.26272 | 1908 ft | 166 kts | 43° |
| 2026-05-05 13:11 | 51.91213 | 0.27605 | 2277 ft | 187 kts | 43° |
| 2026-05-05 13:11 | 51.92234 | 0.29087 | 2589 ft | 208 kts | 37° |
| 2026-05-05 13:12 | 51.93655 | 0.29938 | 2902 ft | 232 kts | 5° |
| 2026-05-05 13:12 | 51.95272 | 0.29376 | 3505 ft | 243 kts | 334° |
| 2026-05-05 13:12 | 51.96505 | 0.27446 | 4009 ft | 263 kts | 298° |
| 2026-05-05 13:12 | 51.97024 | 0.24512 | 4724 ft | 274 kts | 282° |
| 2026-05-05 13:13 | 51.97368 | 0.21460 | 4950 ft | 276 kts | 281° |
| 2026-05-05 13:13 | 51.97691 | 0.18389 | 5003 ft | 276 kts | 281° |
| 2026-05-05 13:13 | 51.98005 | 0.15364 | 5006 ft | 275 kts | 280° |
| 2026-05-05 13:13 | 51.98326 | 0.12310 | 5011 ft | 275 kts | 281° |
| 2026-05-05 13:14 | 51.98652 | 0.09247 | 5007 ft | 275 kts | 281° |
| 2026-05-05 13:14 | 51.98878 | 0.06155 | 5008 ft | 278 kts | 269° |
| 2026-05-05 13:14 | 51.98591 | 0.03061 | 5006 ft | 277 kts | 258° |
| 2026-05-05 13:14 | 51.98188 | 0.00007 | 5005 ft | 277 kts | 258° |
| 2026-05-05 13:15 | 51.97790 | -0.03037 | 5005 ft | 275 kts | 258° |
| 2026-05-05 13:15 | 51.97397 | -0.06065 | 5008 ft | 274 kts | 259° |
| 2026-05-05 13:15 | 51.97002 | -0.09118 | 5160 ft | 281 kts | 258° |
| 2026-05-05 13:15 | 51.96603 | -0.12204 | 6144 ft | 279 kts | 259° |
| 2026-05-05 13:16 | 51.96204 | -0.15290 | 7072 ft | 280 kts | 259° |
| 2026-05-05 13:16 | 51.95799 | -0.18392 | 7923 ft | 282 kts | 258° |
| 2026-05-05 13:16 | 51.95390 | -0.21514 | 8769 ft | 285 kts | 259° |
| 2026-05-05 13:16 | 51.94976 | -0.24664 | 9616 ft | 288 kts | 258° |
| 2026-05-05 13:17 | 51.94556 | -0.27858 | 10319 ft | 295 kts | 259° |
| 2026-05-05 13:17 | 51.94114 | -0.31233 | 10543 ft | 318 kts | 259° |
| 2026-05-05 13:17 | 51.93638 | -0.34872 | 10697 ft | 341 kts | 259° |
| 2026-05-05 13:17 | 51.93128 | -0.38758 | 10846 ft | 362 kts | 258° |
| 2026-05-05 13:18 | 51.92588 | -0.42808 | 11325 ft | 371 kts | 258° |
| 2026-05-05 13:18 | 51.92046 | -0.46859 | 11938 ft | 375 kts | 258° |
| 2026-05-05 13:18 | 51.91485 | -0.51053 | 12588 ft | 378 kts | 258° |
| 2026-05-05 13:18 | 51.90933 | -0.55186 | 13223 ft | 382 kts | 258° |
| 2026-05-05 13:19 | 51.90366 | -0.59408 | 13858 ft | 385 kts | 258° |
| 2026-05-05 13:19 | 51.89794 | -0.63663 | 14432 ft | 389 kts | 258° |
| 2026-05-05 13:19 | 51.89215 | -0.67954 | 15034 ft | 391 kts | 258° |
| 2026-05-05 13:19 | 51.88630 | -0.72276 | 15622 ft | 394 kts | 257° |
| 2026-05-05 13:20 | 51.88041 | -0.76610 | 16195 ft | 396 kts | 257° |
| 2026-05-05 13:20 | 51.87443 | -0.80987 | 16751 ft | 399 kts | 257° |
| 2026-05-05 13:20 | 51.86840 | -0.85389 | 17326 ft | 402 kts | 257° |
| 2026-05-05 13:20 | 51.86161 | -0.89782 | 17875 ft | 404 kts | 251° |
| 2026-05-05 13:21 | 51.84951 | -0.93887 | 18361 ft | 406 kts | 237° |
| 2026-05-05 13:21 | 51.83158 | -0.97431 | 18835 ft | 409 kts | 223° |
| 2026-05-05 13:21 | 51.80891 | -1.00194 | 19356 ft | 410 kts | 210° |
| 2026-05-05 13:21 | 51.78279 | -1.02043 | 19853 ft | 412 kts | 197° |
| 2026-05-05 13:22 | 51.75451 | -1.02968 | 20300 ft | 416 kts | 190° |
| 2026-05-05 13:22 | 51.72588 | -1.03698 | 20818 ft | 417 kts | 190° |
| 2026-05-05 13:22 | 51.69715 | -1.04424 | 21318 ft | 419 kts | 190° |
| 2026-05-05 13:22 | 51.66820 | -1.05069 | 21765 ft | 422 kts | 185° |
| 2026-05-05 13:23 | 51.63868 | -1.05005 | 22194 ft | 427 kts | 175° |
| 2026-05-05 13:23 | 51.60942 | -1.04067 | 22650 ft | 431 kts | 165° |
| 2026-05-05 13:23 | 51.58145 | -1.02257 | 23106 ft | 436 kts | 154° |
| 2026-05-05 13:23 | 51.55575 | -0.99629 | 23515 ft | 441 kts | 146° |
| 2026-05-05 13:24 | 51.53081 | -0.96746 | 23901 ft | 443 kts | 146° |
| 2026-05-05 13:24 | 51.50562 | -0.93865 | 24287 ft | 444 kts | 146° |
| 2026-05-05 13:24 | 51.47201 | -0.90052 | 24837 ft | 446 kts | 147° |
| 2026-05-05 13:24 | 51.35921 | -0.81924 | 26307 ft | 448 kts | 159° |
| 2026-05-05 13:25 | 51.24275 | -0.74457 | 27576 ft | 453 kts | 159° |
| 2026-05-05 13:25 | 51.12631 | -0.67065 | 29207 ft | 445 kts | 159° |
| 2026-05-05 13:25 | 51.01628 | -0.58451 | 30750 ft | 441 kts | 147° |
| 2026-05-05 13:25 | 50.91521 | -0.47709 | 31911 ft | 442 kts | 148° |
| 2026-05-05 13:26 | 50.82294 | -0.37922 | 33012 ft | 442 kts | 144° |
| 2026-05-05 13:26 | 50.79763 | -0.35186 | 33324 ft | 441 kts | 147° |
| 2026-05-05 13:26 | 50.77210 | -0.32471 | 33585 ft | 442 kts | 148° |
| 2026-05-05 13:26 | 50.74645 | -0.29782 | 33865 ft | 442 kts | 148° |
| 2026-05-05 13:27 | 50.72080 | -0.27104 | 34118 ft | 442 kts | 148° |
| 2026-05-05 13:27 | 50.66694 | -0.21489 | 34583 ft | 443 kts | 148° |
| 2026-05-05 13:27 | 50.56405 | -0.10731 | 35502 ft | 444 kts | 147° |
| 2026-05-05 13:27 | 50.46232 | -0.00129 | 36330 ft | 445 kts | 147° |
| 2026-05-05 13:28 | 50.35882 | 0.10582 | 36997 ft | 447 kts | 148° |
| 2026-05-05 13:28 | 50.25520 | 0.21246 | 36893 ft | 447 kts | 148° |
| 2026-05-05 13:28 | 50.04835 | 0.42509 | 36979 ft | 445 kts | 148° |
| 2026-05-05 13:29 | 49.94501 | 0.53035 | 36872 ft | 446 kts | 148° |
| 2026-05-05 13:29 | 49.84433 | 0.64010 | 36875 ft | 442 kts | 135° |
| 2026-05-05 13:29 | 49.76197 | 0.78141 | 37019 ft | 437 kts | 134° |
| 2026-05-05 13:29 | 49.67895 | 0.92076 | 36851 ft | 443 kts | 134° |
| 2026-05-05 13:30 | 49.51278 | 1.19895 | 36943 ft | 441 kts | 134° |
| 2026-05-05 13:30 | 49.34454 | 1.47734 | 36917 ft | 445 kts | 134° |
| 2026-05-05 13:31 | 49.17614 | 1.75326 | 36884 ft | 443 kts | 134° |
| 2026-05-05 13:31 | 49.00714 | 2.02704 | 36888 ft | 443 kts | 134° |
| 2026-05-05 13:32 | 48.83714 | 2.29957 | 36847 ft | 443 kts | 135° |
| 2026-05-05 13:32 | 48.66642 | 2.57045 | 36859 ft | 445 kts | 135° |
| 2026-05-05 13:33 | 48.54800 | 2.88547 | 36839 ft | 454 kts | 94° |
| 2026-05-05 13:33 | 48.53461 | 3.26763 | 36846 ft | 458 kts | 95° |
| 2026-05-05 13:34 | 48.52021 | 3.65157 | 36836 ft | 458 kts | 96° |
| 2026-05-05 13:34 | 48.50265 | 4.03376 | 36827 ft | 456 kts | 104° |
| 2026-05-05 13:35 | 48.43631 | 4.39813 | 36832 ft | 453 kts | 108° |
| 2026-05-05 13:35 | 48.36786 | 4.76470 | 36819 ft | 452 kts | 108° |
| 2026-05-05 13:36 | 48.29874 | 5.12802 | 36830 ft | 453 kts | 109° |
| 2026-05-05 13:36 | 48.24288 | 5.49908 | 36856 ft | 457 kts | 106° |
| 2026-05-05 13:37 | 48.18604 | 5.87039 | 36863 ft | 457 kts | 106° |
| 2026-05-05 13:37 | 48.12821 | 6.24145 | 36870 ft | 457 kts | 107° |
| 2026-05-05 13:38 | 48.06931 | 6.61200 | 36872 ft | 457 kts | 107° |
| 2026-05-05 13:38 | 48.03865 | 6.80146 | 36891 ft | 457 kts | 107° |
| 2026-05-05 13:39 | 48.02354 | 6.89388 | 36862 ft | 457 kts | 108° |
| 2026-05-05 13:39 | 48.00838 | 6.98631 | 36865 ft | 458 kts | 108° |
| 2026-05-05 13:40 | 47.99325 | 7.07812 | 36860 ft | 458 kts | 108° |
| 2026-05-05 13:40 | 47.97786 | 7.17052 | 36865 ft | 459 kts | 108° |
| 2026-05-05 13:41 | 47.96238 | 7.26292 | 36848 ft | 459 kts | 108° |
| 2026-05-05 13:41 | 47.94692 | 7.35536 | 36853 ft | 460 kts | 108° |
| 2026-05-05 13:42 | 47.93131 | 7.44791 | 36860 ft | 460 kts | 108° |
| 2026-05-05 13:42 | 47.91562 | 7.54037 | 36882 ft | 460 kts | 108° |
| 2026-05-05 13:43 | 47.89645 | 7.63078 | 36879 ft | 457 kts | 114° |
| 2026-05-05 13:43 | 47.87398 | 7.71949 | 36875 ft | 457 kts | 115° |
| 2026-05-05 13:44 | 47.85144 | 7.80806 | 36879 ft | 458 kts | 115° |
| 2026-05-05 13:44 | 47.82886 | 7.89672 | 36885 ft | 458 kts | 115° |
| 2026-05-05 13:45 | 47.80622 | 7.98534 | 36888 ft | 458 kts | 115° |
| 2026-05-05 13:45 | 47.78368 | 8.07342 | 36888 ft | 458 kts | 115° |
| 2026-05-05 13:46 | 47.76090 | 8.16193 | 36888 ft | 459 kts | 115° |
| 2026-05-05 13:46 | 47.74175 | 8.23606 | 36888 ft | 459 kts | 115° |
| 2026-05-05 13:47 | 47.71887 | 8.32453 | 36888 ft | 459 kts | 115° |
| 2026-05-05 13:47 | 47.69596 | 8.41295 | 36879 ft | 460 kts | 112° |
| 2026-05-05 13:48 | 47.68396 | 8.50696 | 36878 ft | 467 kts | 100° |
| 2026-05-05 13:48 | 47.67640 | 8.60286 | 36887 ft | 468 kts | 101° |
| 2026-05-05 13:49 | 47.66854 | 8.69880 | 36887 ft | 469 kts | 101° |
| 2026-05-05 13:49 | 47.66066 | 8.79426 | 36893 ft | 469 kts | 101° |
| 2026-05-05 13:50 | 47.65270 | 8.89019 | 36860 ft | 469 kts | 101° |
| 2026-05-05 13:50 | 47.64466 | 8.98603 | 36871 ft | 470 kts | 101° |
| 2026-05-05 13:51 | 47.63653 | 9.08251 | 36869 ft | 470 kts | 101° |
| 2026-05-05 13:51 | 47.62831 | 9.17872 | 36872 ft | 471 kts | 101° |
| 2026-05-05 13:52 | 47.62002 | 9.27525 | 36848 ft | 471 kts | 101° |
| 2026-05-05 13:52 | 47.61167 | 9.37173 | 36855 ft | 472 kts | 101° |
| 2026-05-05 13:53 | 47.60316 | 9.46817 | 36877 ft | 472 kts | 101° |
| 2026-05-05 13:53 | 47.59453 | 9.56459 | 36883 ft | 472 kts | 101° |
| 2026-05-05 13:54 | 47.58591 | 9.66119 | 36885 ft | 473 kts | 100° |
| 2026-05-05 13:54 | 47.58055 | 9.75858 | 36868 ft | 476 kts | 96° |
| 2026-05-05 13:55 | 47.57782 | 9.85686 | 36872 ft | 477 kts | 96° |
| 2026-05-05 13:55 | 47.57480 | 9.95429 | 36869 ft | 477 kts | 97° |
| 2026-05-05 13:56 | 47.57073 | 10.05226 | 36868 ft | 477 kts | 97° |
| 2026-05-05 13:56 | 47.56628 | 10.15017 | 36858 ft | 476 kts | 97° |
| 2026-05-05 13:57 | 47.56186 | 10.24815 | 36852 ft | 476 kts | 97° |
| 2026-05-05 13:57 | 47.55756 | 10.34596 | 36856 ft | 476 kts | 97° |
| 2026-05-05 13:58 | 47.55316 | 10.44384 | 36849 ft | 476 kts | 97° |
| 2026-05-05 13:58 | 47.55581 | 10.54202 | 36323 ft | 483 kts | 81° |
| 2026-05-05 13:59 | 47.58020 | 10.63553 | 34477 ft | 494 kts | 60° |
| 2026-05-05 13:59 | 47.59776 | 10.67817 | 33487 ft | 487 kts | 60° |
| 2026-05-05 14:00 | 47.63258 | 10.76410 | 31361 ft | 486 kts | 62° |
| 2026-05-05 14:00 | 47.64981 | 10.80732 | 30359 ft | 486 kts | 63° |
| 2026-05-05 14:00 | 47.66709 | 10.85027 | 29301 ft | 486 kts | 60° |
| 2026-05-05 14:00 | 47.68746 | 10.89044 | 28200 ft | 491 kts | 51° |
| 2026-05-05 14:01 | 47.71202 | 10.92603 | 27130 ft | 496 kts | 41° |
| 2026-05-05 14:01 | 47.73912 | 10.95805 | 26097 ft | 499 kts | 40° |
| 2026-05-05 14:01 | 47.76642 | 10.99020 | 25107 ft | 502 kts | 40° |
| 2026-05-05 14:01 | 47.79383 | 11.02258 | 24122 ft | 504 kts | 40° |
| 2026-05-05 14:02 | 47.82114 | 11.05497 | 23229 ft | 500 kts | 40° |
| 2026-05-05 14:02 | 47.84814 | 11.08716 | 22149 ft | 494 kts | 40° |
| 2026-05-05 14:02 | 47.87474 | 11.11897 | 21098 ft | 486 kts | 40° |
| 2026-05-05 14:02 | 47.90093 | 11.15024 | 20080 ft | 479 kts | 39° |
| 2026-05-05 14:03 | 47.92670 | 11.18099 | 19118 ft | 470 kts | 39° |
| 2026-05-05 14:03 | 47.95191 | 11.21108 | 18167 ft | 455 kts | 39° |
| 2026-05-05 14:03 | 47.97588 | 11.23967 | 17103 ft | 427 kts | 39° |
| 2026-05-05 14:03 | 47.99842 | 11.26658 | 16110 ft | 405 kts | 39° |
| 2026-05-05 14:04 | 48.01992 | 11.29225 | 15109 ft | 387 kts | 39° |
| 2026-05-05 14:04 | 48.04049 | 11.31681 | 14145 ft | 371 kts | 39° |
| 2026-05-05 14:04 | 48.05898 | 11.34260 | 13157 ft | 357 kts | 51° |
| 2026-05-05 14:04 | 48.07255 | 11.37272 | 12274 ft | 343 kts | 65° |
| 2026-05-05 14:05 | 48.08139 | 11.40561 | 11976 ft | 341 kts | 72° |
| 2026-05-05 14:05 | 48.08941 | 11.43913 | 11829 ft | 341 kts | 71° |
| 2026-05-05 14:05 | 48.09750 | 11.47234 | 11825 ft | 339 kts | 71° |
| 2026-05-05 14:05 | 48.10559 | 11.50543 | 11821 ft | 339 kts | 71° |
| 2026-05-05 14:06 | 48.11358 | 11.53818 | 11818 ft | 339 kts | 71° |
| 2026-05-05 14:06 | 48.12163 | 11.57128 | 11812 ft | 339 kts | 71° |
| 2026-05-05 14:06 | 48.12965 | 11.60439 | 11226 ft | 334 kts | 71° |
| 2026-05-05 14:06 | 48.13745 | 11.63676 | 10711 ft | 331 kts | 72° |
| 2026-05-05 14:07 | 48.14525 | 11.66939 | 10465 ft | 333 kts | 72° |
| 2026-05-05 14:07 | 48.15304 | 11.70202 | 10215 ft | 333 kts | 72° |
| 2026-05-05 14:07 | 48.16088 | 11.73480 | 9981 ft | 333 kts | 71° |
| 2026-05-05 14:07 | 48.16857 | 11.76702 | 9736 ft | 318 kts | 72° |
| 2026-05-05 14:08 | 48.17580 | 11.79720 | 9606 ft | 301 kts | 72° |
| 2026-05-05 14:08 | 48.18274 | 11.82653 | 9473 ft | 297 kts | 72° |
| 2026-05-05 14:08 | 48.18914 | 11.85586 | 9345 ft | 296 kts | 74° |
| 2026-05-05 14:08 | 48.19524 | 11.88530 | 9213 ft | 295 kts | 75° |
| 2026-05-05 14:09 | 48.20120 | 11.91463 | 9079 ft | 294 kts | 75° |
| 2026-05-05 14:09 | 48.20715 | 11.94398 | 8957 ft | 294 kts | 75° |
| 2026-05-05 14:09 | 48.21312 | 11.97323 | 8816 ft | 293 kts | 74° |
| 2026-05-05 14:09 | 48.21912 | 12.00246 | 8697 ft | 293 kts | 74° |
| 2026-05-05 14:10 | 48.22505 | 12.03132 | 8566 ft | 292 kts | 74° |
| 2026-05-05 14:10 | 48.23103 | 12.06041 | 8436 ft | 292 kts | 74° |
| 2026-05-05 14:10 | 48.23704 | 12.08956 | 8353 ft | 293 kts | 75° |
| 2026-05-05 14:10 | 48.24306 | 12.11880 | 8203 ft | 293 kts | 75° |
| 2026-05-05 14:11 | 48.24909 | 12.14795 | 8034 ft | 292 kts | 75° |
| 2026-05-05 14:11 | 48.25511 | 12.17708 | 7873 ft | 291 kts | 75° |
| 2026-05-05 14:11 | 48.26108 | 12.20604 | 7672 ft | 291 kts | 75° |
| 2026-05-05 14:11 | 48.26702 | 12.23496 | 7496 ft | 290 kts | 75° |
| 2026-05-05 14:12 | 48.27293 | 12.26383 | 7316 ft | 289 kts | 75° |
| 2026-05-05 14:12 | 48.27878 | 12.29264 | 7143 ft | 288 kts | 75° |
| 2026-05-05 14:12 | 48.28462 | 12.32140 | 6972 ft | 288 kts | 75° |
| 2026-05-05 14:12 | 48.29048 | 12.35010 | 6797 ft | 287 kts | 75° |
| 2026-05-05 14:13 | 48.29664 | 12.37864 | 6622 ft | 288 kts | 68° |
| 2026-05-05 14:13 | 48.30784 | 12.40293 | 6456 ft | 281 kts | 41° |
| 2026-05-05 14:13 | 48.32456 | 12.41660 | 6288 ft | 272 kts | 12° |
| 2026-05-05 14:13 | 48.34312 | 12.41693 | 6117 ft | 267 kts | 343° |
| 2026-05-05 14:14 | 48.35927 | 12.40413 | 5944 ft | 263 kts | 313° |
| 2026-05-05 14:14 | 48.36934 | 12.38182 | 5770 ft | 258 kts | 291° |
| 2026-05-05 14:14 | 48.37599 | 12.35684 | 5594 ft | 257 kts | 288° |
| 2026-05-05 14:14 | 48.38230 | 12.33176 | 5420 ft | 256 kts | 288° |
| 2026-05-05 14:15 | 48.38860 | 12.30672 | 5241 ft | 255 kts | 287° |
| 2026-05-05 14:15 | 48.39218 | 12.28096 | 5091 ft | 251 kts | 270° |
| 2026-05-05 14:15 | 48.39228 | 12.25484 | 4991 ft | 249 kts | 266° |
| 2026-05-05 14:15 | 48.39154 | 12.22871 | 4998 ft | 251 kts | 265° |
| 2026-05-05 14:16 | 48.39056 | 12.20247 | 5015 ft | 251 kts | 264° |
| 2026-05-05 14:16 | 48.38965 | 12.17676 | 5010 ft | 238 kts | 265° |
| 2026-05-05 14:16 | 48.39017 | 12.15273 | 5024 ft | 221 kts | 269° |
| 2026-05-05 14:16 | 48.38975 | 12.12993 | 5046 ft | 217 kts | 264° |
| 2026-05-05 14:17 | 48.38831 | 12.10762 | 5011 ft | 217 kts | 263° |
| 2026-05-05 14:17 | 48.38666 | 12.08518 | 4824 ft | 214 kts | 263° |
| 2026-05-05 14:17 | 48.38501 | 12.06293 | 4564 ft | 213 kts | 263° |
| 2026-05-05 14:17 | 48.38338 | 12.04097 | 4288 ft | 207 kts | 263° |
| 2026-05-05 14:18 | 48.38179 | 12.01953 | 4012 ft | 204 kts | 262° |
| 2026-05-05 14:18 | 48.38022 | 11.99851 | 3768 ft | 200 kts | 263° |
| 2026-05-05 14:18 | 48.37867 | 11.97772 | 3497 ft | 199 kts | 263° |
| 2026-05-05 14:18 | 48.37712 | 11.95693 | 3233 ft | 201 kts | 263° |
| 2026-05-05 14:19 | 48.37555 | 11.93612 | 2972 ft | 200 kts | 262° |
| 2026-05-05 14:19 | 48.37400 | 11.91543 | 2722 ft | 197 kts | 262° |
| 2026-05-05 14:19 | 48.37252 | 11.89576 | 2469 ft | 176 kts | 263° |
| 2026-05-05 14:19 | 48.37123 | 11.87861 | 2241 ft | 155 kts | 263° |
| 2026-05-05 14:20 | 48.37003 | 11.86287 | 2042 ft | 149 kts | 264° |
| 2026-05-05 14:20 | 48.36887 | 11.84759 | 1846 ft | 146 kts | 265° |
| 2026-05-05 14:20 | 48.36773 | 11.83243 | 1654 ft | 145 kts | 261° |
| 2026-05-05 14:20 | 48.36673 | 11.81730 | 1470 ft | 145 kts | 257° |
| 2026-05-05 14:21 | 48.36568 | 11.80509 | 1459 ft | 87 kts | 264° |
| 2026-05-05 14:21 | 48.36515 | 11.79897 | 1463 ft | 32 kts | 256° |
| 2026-05-05 14:21 | 48.36424 | 11.79652 | 1463 ft | 24 kts | 237° |
| 2026-05-05 14:21 | 48.36406 | 11.79612 | 1463 ft | 0 kts | 236° |
| 2026-05-05 14:22 | 48.36389 | 11.79577 | 1464 ft | 7 kts | 233° |
| 2026-05-05 14:22 | 48.36361 | 11.79519 | 1461 ft | 7 kts | 233° |
| 2026-05-05 14:22 | 48.36333 | 11.79464 | 1463 ft | 7 kts | 232° |
| 2026-05-05 14:23 | 48.36296 | 11.79391 | 1465 ft | 12 kts | 233° |
| 2026-05-05 14:23 | 48.36229 | 11.79302 | 1463 ft | 14 kts | 201° |
| 2026-05-05 14:23 | 48.36159 | 11.79303 | 1468 ft | 10 kts | 175° |
| 2026-05-05 14:23 | 48.36084 | 11.79318 | 1459 ft | 12 kts | 171° |
| 2026-05-05 14:24 | 48.36025 | 11.79331 | 1465 ft | 9 kts | 173° |
| 2026-05-05 14:24 | 48.35978 | 11.79337 | 1468 ft | 5 kts | 175° |
| 2026-05-05 14:24 | 48.35960 | 11.79339 | 1463 ft | 0 kts | 175° |
| 2026-05-05 14:24 | 48.35945 | 11.79341 | 1467 ft | 5 kts | 174° |
| 2026-05-05 14:25 | 48.35906 | 11.79364 | 1462 ft | 7 kts | 154° |
| 2026-05-05 14:25 | 48.35852 | 11.79387 | 1459 ft | 8 kts | 175° |
| 2026-05-05 14:25 | 48.35840 | 11.79389 | 1464 ft | 3 kts | 175° |
| 2026-05-05 14:25 | 48.35835 | 11.79389 | 1462 ft | 1 kts | 175° |
| 2026-05-05 14:26 | 48.35833 | 11.79390 | 1461 ft | 0 kts | 175° |
| 2026-05-05 14:26 | 48.35829 | 11.79390 | 1461 ft | 2 kts | 175° |
| 2026-05-05 14:26 | 48.35808 | 11.79386 | 1463 ft | 4 kts | 208° |
| 2026-05-05 14:27 | 48.35791 | 11.79347 | 1458 ft | 6 kts | 249° |
| 2026-05-05 14:27 | 48.35782 | 11.79277 | 1467 ft | 5 kts | 262° |
| 2026-05-05 14:27 | 48.35780 | 11.79255 | 1467 ft | 1 kts | 263° |
| 2026-05-05 14:27 | 48.35779 | 11.79247 | 1465 ft | 1 kts | 263° |